Impacts TAF Board
For situational awareness. Not to be used for flight planning purposes.
IDs:

KSEZ - Sedona Arpt, AZ, US

Issued at 1120 UTC 30 Oct 2020
Updated at 1623 UTC 30 Oct 2020
Potential Impact None Slight Moderate High
Time1615Z 30/17Z 30/18Z 30/19Z 30/20Z 30/21Z 30/22Z 30/23Z 31/00Z 31/01Z 31/02Z 31/03Z 31/04Z 31/05Z>>
Type OBS PRVL PRVL PRVL PRVL PRVL PRVL PRVL PRVL PRVL PRVL PRVL PRVL PRVL
VIS 10 >6 >6 >6 >6 >6 >6 >6 >6 >6 >6 >6 >6 >6
CIG -- -- -- -- -- -- -- -- -- -- -- -- -- --
Cover CLR SKC SKC SKC SKC SKC SKC SKC SKC SKC SKC SKC SKC SKC
FltCat VFR VFR VFR VFR VFR VFR VFR VFR VFR VFR VFR VFR VFR VFR
WX -- -- -- -- -- -- -- -- -- -- -- -- -- --
WDir VRB VRB VRB VRB VRB VRB VRB VRB VRB VRB VRB VRB VRB VRB
WSpd 0 5 5 5 5 5 5 5 5 5 5 5 5 5
WGst -- -- -- -- -- -- -- -- -- -- -- -- -- --
Raw TAF
KSEZ 301120Z 3012/3112 04011KT P6SM FEW200
  FM301700 VRB05KT P6SM SKC
  FM310800 05011G15KT P6SM SKC


Raw METAR
KSEZ 301615Z AUTO 00000KT 10SM CLR 16/M02 A3024 RMK AO2
KSEZ 301555Z AUTO 13003KT 10SM CLR 16/M01 A3025 RMK AO2
KSEZ 301535Z AUTO 00000KT 10SM CLR 16/M02 A3024 RMK AO2
KSEZ 301515Z AUTO 07006KT 10SM CLR 14/M02 A3023 RMK AO2
KSEZ 301455Z AUTO 06007KT 10SM CLR 13/M02 A3022 RMK AO2
KSEZ 301435Z AUTO 05007KT 10SM CLR 13/M02 A3022 RMK AO2
KSEZ 301415Z AUTO 04011KT 10SM CLR 12/M02 A3021 RMK AO2
KSEZ 301355Z AUTO 04012KT 10SM CLR 12/M02 A3021 RMK AO2
KSEZ 301335Z AUTO 04012KT 10SM CLR 12/M02 A3021 RMK AO2

METAR Board
Radar Display
Forecast Discussion
For situational awareness. Not to be used for flight planning purposes.